sensor_id;sensor_type;location;lat;lon;timestamp;temperature;humidity
7842;DHT22;3966;51.052;13.820;2022-11-18T00:01:11;6.40;99.90
7842;DHT22;3966;51.052;13.820;2022-11-18T00:03:38;6.40;99.90
7842;DHT22;3966;51.052;13.820;2022-11-18T00:06:05;6.40;99.90
7842;DHT22;3966;51.052;13.820;2022-11-18T00:08:32;6.40;99.90
7842;DHT22;3966;51.052;13.820;2022-11-18T00:10:57;6.40;99.90
7842;DHT22;3966;51.052;13.820;2022-11-18T00:13:23;6.40;99.90
7842;DHT22;3966;51.052;13.820;2022-11-18T00:16:09;6.40;99.90
7842;DHT22;3966;51.052;13.820;2022-11-18T00:18:36;6.40;99.90
7842;DHT22;3966;51.052;13.820;2022-11-18T00:21:07;6.40;99.90
7842;DHT22;3966;51.052;13.820;2022-11-18T00:23:33;6.40;99.90
7842;DHT22;3966;51.052;13.820;2022-11-18T00:26:10;6.40;99.90
7842;DHT22;3966;51.052;13.820;2022-11-18T00:28:37;6.40;99.90
7842;DHT22;3966;51.052;13.820;2022-11-18T00:31:05;6.40;99.90
7842;DHT22;3966;51.052;13.820;2022-11-18T00:33:31;6.40;99.90
7842;DHT22;3966;51.052;13.820;2022-11-18T00:35:57;6.40;99.90
7842;DHT22;3966;51.052;13.820;2022-11-18T00:38:24;6.40;99.90
7842;DHT22;3966;51.052;13.820;2022-11-18T00:41:01;6.50;99.90
7842;DHT22;3966;51.052;13.820;2022-11-18T00:43:26;6.40;99.90
7842;DHT22;3966;51.052;13.820;2022-11-18T00:45:52;6.40;99.90
7842;DHT22;3966;51.052;13.820;2022-11-18T00:48:18;6.40;99.90
7842;DHT22;3966;51.052;13.820;2022-11-18T00:50:47;6.50;99.90
7842;DHT22;3966;51.052;13.820;2022-11-18T00:53:13;6.50;99.90
7842;DHT22;3966;51.052;13.820;2022-11-18T00:55:38;6.40;99.90
7842;DHT22;3966;51.052;13.820;2022-11-18T00:58:04;6.40;99.90
7842;DHT22;3966;51.052;13.820;2022-11-18T01:00:29;6.40;99.90
7842;DHT22;3966;51.052;13.820;2022-11-18T01:02:55;6.40;99.90
7842;DHT22;3966;51.052;13.820;2022-11-18T01:05:20;6.40;99.90
7842;DHT22;3966;51.052;13.820;2022-11-18T01:07:46;6.40;99.90
7842;DHT22;3966;51.052;13.820;2022-11-18T01:10:11;6.30;99.90
7842;DHT22;3966;51.052;13.820;2022-11-18T01:12:37;6.30;99.90
7842;DHT22;3966;51.052;13.820;2022-11-18T01:15:21;6.30;99.90
7842;DHT22;3966;51.052;13.820;2022-11-18T01:17:46;6.30;99.90
7842;DHT22;3966;51.052;13.820;2022-11-18T01:20:13;6.30;99.90
7842;DHT22;3966;51.052;13.820;2022-11-18T01:22:39;6.30;99.90
7842;DHT22;3966;51.052;13.820;2022-11-18T01:25:04;6.20;99.90
7842;DHT22;3966;51.052;13.820;2022-11-18T01:27:30;6.30;99.90
7842;DHT22;3966;51.052;13.820;2022-11-18T01:29:55;6.20;99.90
7842;DHT22;3966;51.052;13.820;2022-11-18T01:32:21;6.20;99.90
7842;DHT22;3966;51.052;13.820;2022-11-18T01:34:47;6.20;99.90
7842;DHT22;3966;51.052;13.820;2022-11-18T01:37:12;6.20;99.90
7842;DHT22;3966;51.052;13.820;2022-11-18T01:39:38;6.20;99.90
7842;DHT22;3966;51.052;13.820;2022-11-18T01:42:03;6.20;99.90
7842;DHT22;3966;51.052;13.820;2022-11-18T01:47:27;6.20;99.90
7842;DHT22;3966;51.052;13.820;2022-11-18T01:49:55;6.10;99.90
7842;DHT22;3966;51.052;13.820;2022-11-18T01:52:22;6.10;99.90
7842;DHT22;3966;51.052;13.820;2022-11-18T01:54:52;6.10;99.90
7842;DHT22;3966;51.052;13.820;2022-11-18T01:57:20;6.10;99.90
7842;DHT22;3966;51.052;13.820;2022-11-18T01:59:49;6.20;99.90
7842;DHT22;3966;51.052;13.820;2022-11-18T02:02:15;6.20;99.90
7842;DHT22;3966;51.052;13.820;2022-11-18T02:04:45;6.10;99.90
7842;DHT22;3966;51.052;13.820;2022-11-18T02:07:12;6.10;99.90
7842;DHT22;3966;51.052;13.820;2022-11-18T02:09:38;6.20;99.90
7842;DHT22;3966;51.052;13.820;2022-11-18T02:12:05;6.20;99.90
7842;DHT22;3966;51.052;13.820;2022-11-18T02:14:35;6.30;99.90
7842;DHT22;3966;51.052;13.820;2022-11-18T02:17:18;6.30;99.90
7842;DHT22;3966;51.052;13.820;2022-11-18T02:22:28;6.20;99.90
7842;DHT22;3966;51.052;13.820;2022-11-18T02:30:58;6.10;99.90
7842;DHT22;3966;51.052;13.820;2022-11-18T02:33:41;6.20;99.90
7842;DHT22;3966;51.052;13.820;2022-11-18T02:36:15;6.20;99.90
7842;DHT22;3966;51.052;13.820;2022-11-18T02:38:49;6.20;99.90
7842;DHT22;3966;51.052;13.820;2022-11-18T02:41:21;6.20;99.90
7842;DHT22;3966;51.052;13.820;2022-11-18T02:44:15;6.10;99.90
7842;DHT22;3966;51.052;13.820;2022-11-18T02:46:44;6.10;99.90
7842;DHT22;3966;51.052;13.820;2022-11-18T02:49:18;6.10;99.90
7842;DHT22;3966;51.052;13.820;2022-11-18T02:51:45;6.10;99.90
7842;DHT22;3966;51.052;13.820;2022-11-18T02:54:12;6.00;99.90
7842;DHT22;3966;51.052;13.820;2022-11-18T02:56:41;6.10;99.90
7842;DHT22;3966;51.052;13.820;2022-11-18T02:59:07;6.10;99.90
7842;DHT22;3966;51.052;13.820;2022-11-18T03:01:33;6.10;99.90
7842;DHT22;3966;51.052;13.820;2022-11-18T03:03:59;6.10;99.90
7842;DHT22;3966;51.052;13.820;2022-11-18T03:06:37;6.10;99.90
7842;DHT22;3966;51.052;13.820;2022-11-18T03:22:37;6.10;99.90
7842;DHT22;3966;51.052;13.820;2022-11-18T03:25:28;6.10;99.90
7842;DHT22;3966;51.052;13.820;2022-11-18T03:28:22;6.10;99.90
7842;DHT22;3966;51.052;13.820;2022-11-18T03:31:00;6.10;99.90
7842;DHT22;3966;51.052;13.820;2022-11-18T03:33:33;6.10;99.90
7842;DHT22;3966;51.052;13.820;2022-11-18T03:36:02;6.00;99.90
7842;DHT22;3966;51.052;13.820;2022-11-18T03:38:33;6.00;99.90
7842;DHT22;3966;51.052;13.820;2022-11-18T03:41:03;6.00;99.90
7842;DHT22;3966;51.052;13.820;2022-11-18T03:43:40;6.00;99.90
7842;DHT22;3966;51.052;13.820;2022-11-18T03:46:14;6.00;99.90
7842;DHT22;3966;51.052;13.820;2022-11-18T03:48:45;5.90;99.90
7842;DHT22;3966;51.052;13.820;2022-11-18T03:51:14;5.90;99.90
7842;DHT22;3966;51.052;13.820;2022-11-18T03:53:54;5.90;99.90
7842;DHT22;3966;51.052;13.820;2022-11-18T03:56:28;5.90;99.90
7842;DHT22;3966;51.052;13.820;2022-11-18T03:59:15;6.00;99.90
7842;DHT22;3966;51.052;13.820;2022-11-18T04:01:51;6.00;99.90
7842;DHT22;3966;51.052;13.820;2022-11-18T04:04:17;6.00;99.90
7842;DHT22;3966;51.052;13.820;2022-11-18T04:06:47;6.00;99.90
7842;DHT22;3966;51.052;13.820;2022-11-18T04:09:29;5.90;99.90
7842;DHT22;3966;51.052;13.820;2022-11-18T04:12:02;5.90;99.90
7842;DHT22;3966;51.052;13.820;2022-11-18T04:14:34;5.80;99.90
7842;DHT22;3966;51.052;13.820;2022-11-18T04:17:12;5.80;99.90
7842;DHT22;3966;51.052;13.820;2022-11-18T04:19:38;5.70;99.90
7842;DHT22;3966;51.052;13.820;2022-11-18T04:22:03;5.60;99.90
7842;DHT22;3966;51.052;13.820;2022-11-18T04:24:29;5.60;99.90
7842;DHT22;3966;51.052;13.820;2022-11-18T04:26:55;5.50;99.90
7842;DHT22;3966;51.052;13.820;2022-11-18T04:29:20;5.50;99.90
7842;DHT22;3966;51.052;13.820;2022-11-18T04:31:46;5.50;99.90
7842;DHT22;3966;51.052;13.820;2022-11-18T04:34:11;5.40;99.90
7842;DHT22;3966;51.052;13.820;2022-11-18T04:36:37;5.40;99.90
7842;DHT22;3966;51.052;13.820;2022-11-18T04:39:02;5.40;99.90
7842;DHT22;3966;51.052;13.820;2022-11-18T04:41:28;5.30;99.90
7842;DHT22;3966;51.052;13.820;2022-11-18T04:44:12;5.30;99.90
7842;DHT22;3966;51.052;13.820;2022-11-18T04:46:42;5.20;99.90
7842;DHT22;3966;51.052;13.820;2022-11-18T04:49:08;5.20;99.90
7842;DHT22;3966;51.052;13.820;2022-11-18T04:51:34;5.20;99.90
7842;DHT22;3966;51.052;13.820;2022-11-18T04:54:01;5.20;99.90
7842;DHT22;3966;51.052;13.820;2022-11-18T04:56:26;5.20;99.90
7842;DHT22;3966;51.052;13.820;2022-11-18T04:58:52;5.20;99.90
7842;DHT22;3966;51.052;13.820;2022-11-18T05:01:17;5.10;99.90
7842;DHT22;3966;51.052;13.820;2022-11-18T05:03:43;5.00;99.90
7842;DHT22;3966;51.052;13.820;2022-11-18T05:06:09;5.00;99.90
7842;DHT22;3966;51.052;13.820;2022-11-18T05:08:34;4.90;99.90
7842;DHT22;3966;51.052;13.820;2022-11-18T05:11:05;5.00;99.90
7842;DHT22;3966;51.052;13.820;2022-11-18T05:13:49;4.80;99.90
7842;DHT22;3966;51.052;13.820;2022-11-18T05:16:14;4.80;99.90
7842;DHT22;3966;51.052;13.820;2022-11-18T05:18:40;4.90;99.90
7842;DHT22;3966;51.052;13.820;2022-11-18T05:21:06;4.80;99.90
7842;DHT22;3966;51.052;13.820;2022-11-18T05:23:31;4.80;99.90
7842;DHT22;3966;51.052;13.820;2022-11-18T05:25:57;4.70;99.90
7842;DHT22;3966;51.052;13.820;2022-11-18T05:28:22;4.70;99.90
7842;DHT22;3966;51.052;13.820;2022-11-18T05:30:48;4.70;99.90
7842;DHT22;3966;51.052;13.820;2022-11-18T05:33:13;4.60;99.90
7842;DHT22;3966;51.052;13.820;2022-11-18T05:35:39;4.70;99.90
7842;DHT22;3966;51.052;13.820;2022-11-18T05:38:04;4.60;99.90
7842;DHT22;3966;51.052;13.820;2022-11-18T05:40:30;4.60;99.90
7842;DHT22;3966;51.052;13.820;2022-11-18T05:42:55;4.60;99.90
7842;DHT22;3966;51.052;13.820;2022-11-18T05:45:36;4.70;99.90
7842;DHT22;3966;51.052;13.820;2022-11-18T05:48:03;4.60;99.90
7842;DHT22;3966;51.052;13.820;2022-11-18T05:50:30;4.70;99.90
7842;DHT22;3966;51.052;13.820;2022-11-18T05:52:56;4.70;99.90
7842;DHT22;3966;51.052;13.820;2022-11-18T05:55:24;4.70;99.90
7842;DHT22;3966;51.052;13.820;2022-11-18T05:57:51;4.70;99.90
7842;DHT22;3966;51.052;13.820;2022-11-18T06:00:17;4.70;99.90
7842;DHT22;3966;51.052;13.820;2022-11-18T06:02:44;4.60;99.90
7842;DHT22;3966;51.052;13.820;2022-11-18T06:05:11;4.50;99.90
7842;DHT22;3966;51.052;13.820;2022-11-18T06:07:42;4.40;99.90
7842;DHT22;3966;51.052;13.820;2022-11-18T06:10:15;4.40;99.90
7842;DHT22;3966;51.052;13.820;2022-11-18T06:12:44;4.40;99.90
7842;DHT22;3966;51.052;13.820;2022-11-18T06:15:21;4.40;99.90
7842;DHT22;3966;51.052;13.820;2022-11-18T06:17:52;4.40;99.90
7842;DHT22;3966;51.052;13.820;2022-11-18T06:20:20;4.40;99.90
7842;DHT22;3966;51.052;13.820;2022-11-18T06:22:47;4.30;99.90
7842;DHT22;3966;51.052;13.820;2022-11-18T06:25:13;4.30;99.90
7842;DHT22;3966;51.052;13.820;2022-11-18T06:27:40;4.30;99.90
7842;DHT22;3966;51.052;13.820;2022-11-18T06:30:06;4.20;99.90
7842;DHT22;3966;51.052;13.820;2022-11-18T06:32:32;4.20;99.90
7842;DHT22;3966;51.052;13.820;2022-11-18T06:34:57;4.20;99.90
7842;DHT22;3966;51.052;13.820;2022-11-18T06:37:23;4.20;99.90
7842;DHT22;3966;51.052;13.820;2022-11-18T06:39:48;4.30;99.90
7842;DHT22;3966;51.052;13.820;2022-11-18T06:42:14;4.30;99.90
7842;DHT22;3966;51.052;13.820;2022-11-18T06:44:59;4.30;99.90
7842;DHT22;3966;51.052;13.820;2022-11-18T06:47:26;4.30;99.90
7842;DHT22;3966;51.052;13.820;2022-11-18T06:49:52;4.30;99.90
7842;DHT22;3966;51.052;13.820;2022-11-18T06:52:17;4.30;99.90
7842;DHT22;3966;51.052;13.820;2022-11-18T06:54:43;4.20;99.90
7842;DHT22;3966;51.052;13.820;2022-11-18T06:57:08;4.20;99.90
7842;DHT22;3966;51.052;13.820;2022-11-18T06:59:34;4.20;99.90
7842;DHT22;3966;51.052;13.820;2022-11-18T07:01:59;4.20;99.90
7842;DHT22;3966;51.052;13.820;2022-11-18T07:04:25;4.10;99.90
7842;DHT22;3966;51.052;13.820;2022-11-18T07:06:50;4.20;99.90
7842;DHT22;3966;51.052;13.820;2022-11-18T07:09:16;4.30;99.90
7842;DHT22;3966;51.052;13.820;2022-11-18T07:11:42;4.30;99.90
7842;DHT22;3966;51.052;13.820;2022-11-18T07:14:08;4.30;99.90
7842;DHT22;3966;51.052;13.820;2022-11-18T07:16:34;4.30;99.90
7842;DHT22;3966;51.052;13.820;2022-11-18T07:19:11;4.10;99.90
7842;DHT22;3966;51.052;13.820;2022-11-18T07:21:37;4.10;99.90
7842;DHT22;3966;51.052;13.820;2022-11-18T07:24:05;4.20;99.90
7842;DHT22;3966;51.052;13.820;2022-11-18T07:26:32;4.10;99.90
7842;DHT22;3966;51.052;13.820;2022-11-18T07:28:58;4.10;99.90
7842;DHT22;3966;51.052;13.820;2022-11-18T07:31:23;3.90;99.90
7842;DHT22;3966;51.052;13.820;2022-11-18T07:33:49;4.00;99.90
7842;DHT22;3966;51.052;13.820;2022-11-18T07:36:22;4.00;99.90
7842;DHT22;3966;51.052;13.820;2022-11-18T07:38:48;4.00;99.90
7842;DHT22;3966;51.052;13.820;2022-11-18T07:41:22;4.00;99.90
7842;DHT22;3966;51.052;13.820;2022-11-18T07:43:49;4.00;99.90
7842;DHT22;3966;51.052;13.820;2022-11-18T07:46:21;4.00;99.90
7842;DHT22;3966;51.052;13.820;2022-11-18T07:48:49;3.90;99.90
7842;DHT22;3966;51.052;13.820;2022-11-18T07:51:17;3.90;99.90
7842;DHT22;3966;51.052;13.820;2022-11-18T07:53:43;3.80;99.90
7842;DHT22;3966;51.052;13.820;2022-11-18T07:56:09;3.70;99.90
7842;DHT22;3966;51.052;13.820;2022-11-18T07:58:35;3.70;99.90
7842;DHT22;3966;51.052;13.820;2022-11-18T08:01:14;3.80;99.90
7842;DHT22;3966;51.052;13.820;2022-11-18T08:03:40;3.80;99.90
7842;DHT22;3966;51.052;13.820;2022-11-18T08:06:08;3.80;99.90
7842;DHT22;3966;51.052;13.820;2022-11-18T08:08:34;3.70;99.90
7842;DHT22;3966;51.052;13.820;2022-11-18T08:11:02;3.70;99.90
7842;DHT22;3966;51.052;13.820;2022-11-18T08:13:28;3.70;99.90
7842;DHT22;3966;51.052;13.820;2022-11-18T08:15:54;3.70;99.90
7842;DHT22;3966;51.052;13.820;2022-11-18T08:18:20;3.70;99.90
7842;DHT22;3966;51.052;13.820;2022-11-18T08:20:46;3.80;99.90
7842;DHT22;3966;51.052;13.820;2022-11-18T08:23:13;3.80;99.90
7842;DHT22;3966;51.052;13.820;2022-11-18T08:25:39;3.70;99.90
7842;DHT22;3966;51.052;13.820;2022-11-18T08:28:05;3.60;99.90
7842;DHT22;3966;51.052;13.820;2022-11-18T08:30:32;3.70;99.90
7842;DHT22;3966;51.052;13.820;2022-11-18T08:32:58;3.60;99.90
7842;DHT22;3966;51.052;13.820;2022-11-18T08:35:25;3.70;99.90
7842;DHT22;3966;51.052;13.820;2022-11-18T08:37:51;3.70;99.90
7842;DHT22;3966;51.052;13.820;2022-11-18T08:40:16;3.70;99.90
7842;DHT22;3966;51.052;13.820;2022-11-18T08:42:42;3.70;99.90
7842;DHT22;3966;51.052;13.820;2022-11-18T08:45:08;3.70;99.90
7842;DHT22;3966;51.052;13.820;2022-11-18T08:47:35;3.80;99.90
7842;DHT22;3966;51.052;13.820;2022-11-18T08:50:02;3.90;99.90
7842;DHT22;3966;51.052;13.820;2022-11-18T08:52:28;3.80;99.90
7842;DHT22;3966;51.052;13.820;2022-11-18T08:54:53;3.70;99.90
7842;DHT22;3966;51.052;13.820;2022-11-18T08:57:19;3.60;99.90
7842;DHT22;3966;51.052;13.820;2022-11-18T08:59:44;3.50;99.90
7842;DHT22;3966;51.052;13.820;2022-11-18T09:02:17;3.50;99.90
7842;DHT22;3966;51.052;13.820;2022-11-18T09:04:46;3.50;99.90
7842;DHT22;3966;51.052;13.820;2022-11-18T09:07:11;3.40;99.90
7842;DHT22;3966;51.052;13.820;2022-11-18T09:09:37;3.50;99.90
7842;DHT22;3966;51.052;13.820;2022-11-18T09:12:03;3.40;99.90
7842;DHT22;3966;51.052;13.820;2022-11-18T09:14:29;3.40;99.90
7842;DHT22;3966;51.052;13.820;2022-11-18T09:16:55;3.50;99.90
7842;DHT22;3966;51.052;13.820;2022-11-18T09:19:20;3.50;99.90
7842;DHT22;3966;51.052;13.820;2022-11-18T09:21:46;3.40;99.90
7842;DHT22;3966;51.052;13.820;2022-11-18T09:24:11;3.30;99.90
7842;DHT22;3966;51.052;13.820;2022-11-18T09:26:37;3.20;99.90
7842;DHT22;3966;51.052;13.820;2022-11-18T09:29:03;3.20;99.90
7842;DHT22;3966;51.052;13.820;2022-11-18T09:31:28;3.30;99.90
7842;DHT22;3966;51.052;13.820;2022-11-18T09:33:54;3.30;99.90
7842;DHT22;3966;51.052;13.820;2022-11-18T09:36:22;3.10;99.90
7842;DHT22;3966;51.052;13.820;2022-11-18T09:38:49;3.10;99.90
7842;DHT22;3966;51.052;13.820;2022-11-18T09:44:40;3.20;99.90
7842;DHT22;3966;51.052;13.820;2022-11-18T09:49:40;3.00;99.90
7842;DHT22;3966;51.052;13.820;2022-11-18T09:52:38;2.80;99.90
7842;DHT22;3966;51.052;13.820;2022-11-18T09:55:16;2.80;99.90
7842;DHT22;3966;51.052;13.820;2022-11-18T09:57:48;2.70;99.90
7842;DHT22;3966;51.052;13.820;2022-11-18T10:00:22;2.80;99.90
7842;DHT22;3966;51.052;13.820;2022-11-18T10:08:26;2.70;99.90
7842;DHT22;3966;51.052;13.820;2022-11-18T10:11:15;2.70;99.90
7842;DHT22;3966;51.052;13.820;2022-11-18T10:22:18;2.30;99.90
7842;DHT22;3966;51.052;13.820;2022-11-18T10:24:49;2.30;99.90
7842;DHT22;3966;51.052;13.820;2022-11-18T10:27:16;2.30;99.90
7842;DHT22;3966;51.052;13.820;2022-11-18T10:29:43;2.40;99.90
7842;DHT22;3966;51.052;13.820;2022-11-18T10:32:14;2.40;99.90
7842;DHT22;3966;51.052;13.820;2022-11-18T10:34:55;2.40;99.90
7842;DHT22;3966;51.052;13.820;2022-11-18T10:37:27;2.40;99.90
7842;DHT22;3966;51.052;13.820;2022-11-18T10:39:56;2.40;99.90
7842;DHT22;3966;51.052;13.820;2022-11-18T10:42:39;2.40;99.90
7842;DHT22;3966;51.052;13.820;2022-11-18T10:45:26;2.50;99.90
7842;DHT22;3966;51.052;13.820;2022-11-18T10:48:07;2.50;99.90
7842;DHT22;3966;51.052;13.820;2022-11-18T10:50:45;2.40;99.90
7842;DHT22;3966;51.052;13.820;2022-11-18T10:53:32;2.50;99.90
7842;DHT22;3966;51.052;13.820;2022-11-18T10:56:00;2.40;99.90
7842;DHT22;3966;51.052;13.820;2022-11-18T10:58:28;2.40;99.90
7842;DHT22;3966;51.052;13.820;2022-11-18T11:01:25;2.30;99.90
7842;DHT22;3966;51.052;13.820;2022-11-18T11:04:12;2.20;99.90
7842;DHT22;3966;51.052;13.820;2022-11-18T11:06:41;2.10;99.90
7842;DHT22;3966;51.052;13.820;2022-11-18T11:09:29;2.20;99.90
7842;DHT22;3966;51.052;13.820;2022-11-18T11:12:15;2.20;99.90
7842;DHT22;3966;51.052;13.820;2022-11-18T11:14:54;2.10;99.90
7842;DHT22;3966;51.052;13.820;2022-11-18T11:17:37;2.00;99.90
7842;DHT22;3966;51.052;13.820;2022-11-18T11:20:20;1.90;99.90
7842;DHT22;3966;51.052;13.820;2022-11-18T11:22:47;2.00;99.90
7842;DHT22;3966;51.052;13.820;2022-11-18T11:25:40;2.10;99.90
7842;DHT22;3966;51.052;13.820;2022-11-18T11:28:30;2.20;99.90
7842;DHT22;3966;51.052;13.820;2022-11-18T11:34:21;2.10;99.90
7842;DHT22;3966;51.052;13.820;2022-11-18T11:39:58;2.00;99.90
7842;DHT22;3966;51.052;13.820;2022-11-18T11:45:40;1.90;99.90
7842;DHT22;3966;51.052;13.820;2022-11-18T11:51:42;2.00;99.90
7842;DHT22;3966;51.052;13.820;2022-11-18T11:56:55;2.00;99.90
7842;DHT22;3966;51.052;13.820;2022-11-18T11:59:27;2.00;99.90
7842;DHT22;3966;51.052;13.820;2022-11-18T12:04:36;2.20;99.90
7842;DHT22;3966;51.052;13.820;2022-11-18T12:07:05;2.00;99.90
7842;DHT22;3966;51.052;13.820;2022-11-18T12:12:07;2.10;99.90
7842;DHT22;3966;51.052;13.820;2022-11-18T12:15:03;1.90;99.90
7842;DHT22;3966;51.052;13.820;2022-11-18T12:17:42;1.90;99.90
7842;DHT22;3966;51.052;13.820;2022-11-18T12:23:24;1.80;99.90
7842;DHT22;3966;51.052;13.820;2022-11-18T12:26:01;1.90;99.90
7842;DHT22;3966;51.052;13.820;2022-11-18T12:28:39;1.90;99.90
7842;DHT22;3966;51.052;13.820;2022-11-18T12:33:52;1.60;99.90
7842;DHT22;3966;51.052;13.820;2022-11-18T12:36:32;1.70;99.90
7842;DHT22;3966;51.052;13.820;2022-11-18T12:44:34;1.80;99.90
7842;DHT22;3966;51.052;13.820;2022-11-18T12:47:02;1.90;99.90
7842;DHT22;3966;51.052;13.820;2022-11-18T12:51:55;1.70;99.90
7842;DHT22;3966;51.052;13.820;2022-11-18T12:56:50;1.70;99.90
7842;DHT22;3966;51.052;13.820;2022-11-18T12:59:24;1.50;99.90
7842;DHT22;3966;51.052;13.820;2022-11-18T13:02:01;1.30;99.90
7842;DHT22;3966;51.052;13.820;2022-11-18T13:04:27;1.30;99.90
7842;DHT22;3966;51.052;13.820;2022-11-18T13:06:53;1.30;99.90
7842;DHT22;3966;51.052;13.820;2022-11-18T13:09:22;1.30;99.90
7842;DHT22;3966;51.052;13.820;2022-11-18T13:11:55;1.40;99.90
7842;DHT22;3966;51.052;13.820;2022-11-18T13:17:33;1.50;99.90
7842;DHT22;3966;51.052;13.820;2022-11-18T13:22:57;1.30;99.90
7842;DHT22;3966;51.052;13.820;2022-11-18T13:25:43;1.10;99.90
7842;DHT22;3966;51.052;13.820;2022-11-18T13:34:25;1.50;99.90
7842;DHT22;3966;51.052;13.820;2022-11-18T13:36:52;1.50;99.90
7842;DHT22;3966;51.052;13.820;2022-11-18T13:39:22;1.50;99.90
7842;DHT22;3966;51.052;13.820;2022-11-18T13:44:29;1.20;99.90
7842;DHT22;3966;51.052;13.820;2022-11-18T13:48:21;1.20;99.90
7842;DHT22;3966;51.052;13.820;2022-11-18T13:53:03;1.00;99.90
7842;DHT22;3966;51.052;13.820;2022-11-18T13:55:40;0.80;99.90
7842;DHT22;3966;51.052;13.820;2022-11-18T14:00:42;0.70;99.90
7842;DHT22;3966;51.052;13.820;2022-11-18T14:03:29;0.60;99.90
7842;DHT22;3966;51.052;13.820;2022-11-18T14:05:57;0.70;99.90
7842;DHT22;3966;51.052;13.820;2022-11-18T14:08:28;0.70;99.90
7842;DHT22;3966;51.052;13.820;2022-11-18T14:10:54;0.70;99.90
7842;DHT22;3966;51.052;13.820;2022-11-18T14:13:27;0.80;99.90
7842;DHT22;3966;51.052;13.820;2022-11-18T14:18:49;0.40;99.90
7842;DHT22;3966;51.052;13.820;2022-11-18T14:21:29;0.50;99.90
7842;DHT22;3966;51.052;13.820;2022-11-18T14:23:56;0.60;99.90
7842;DHT22;3966;51.052;13.820;2022-11-18T14:26:34;0.70;99.90
7842;DHT22;3966;51.052;13.820;2022-11-18T14:29:02;0.80;99.90
7842;DHT22;3966;51.052;13.820;2022-11-18T14:31:38;0.80;99.90
7842;DHT22;3966;51.052;13.820;2022-11-18T14:34:19;0.50;99.90
7842;DHT22;3966;51.052;13.820;2022-11-18T14:36:46;0.60;99.90
7842;DHT22;3966;51.052;13.820;2022-11-18T14:39:24;0.70;99.90
7842;DHT22;3966;51.052;13.820;2022-11-18T14:41:50;0.80;99.90
7842;DHT22;3966;51.052;13.820;2022-11-18T14:44:17;0.70;99.90
7842;DHT22;3966;51.052;13.820;2022-11-18T14:46:46;0.80;99.90
7842;DHT22;3966;51.052;13.820;2022-11-18T14:49:17;0.70;99.90
7842;DHT22;3966;51.052;13.820;2022-11-18T14:51:44;0.70;99.90
7842;DHT22;3966;51.052;13.820;2022-11-18T14:54:14;0.70;99.90
7842;DHT22;3966;51.052;13.820;2022-11-18T14:56:40;0.60;99.90
7842;DHT22;3966;51.052;13.820;2022-11-18T14:59:09;0.50;99.90
7842;DHT22;3966;51.052;13.820;2022-11-18T15:01:49;0.30;99.90
7842;DHT22;3966;51.052;13.820;2022-11-18T15:04:16;0.50;99.90
7842;DHT22;3966;51.052;13.820;2022-11-18T15:06:43;0.60;99.90
7842;DHT22;3966;51.052;13.820;2022-11-18T15:09:10;0.60;99.90
7842;DHT22;3966;51.052;13.820;2022-11-18T15:11:36;0.70;99.90
7842;DHT22;3966;51.052;13.820;2022-11-18T15:14:02;0.80;99.90
7842;DHT22;3966;51.052;13.820;2022-11-18T15:16:29;0.70;99.90
7842;DHT22;3966;51.052;13.820;2022-11-18T15:18:57;0.60;99.90
7842;DHT22;3966;51.052;13.820;2022-11-18T15:21:24;0.60;99.90
7842;DHT22;3966;51.052;13.820;2022-11-18T15:23:49;0.60;99.90
7842;DHT22;3966;51.052;13.820;2022-11-18T15:28:43;0.60;99.90
7842;DHT22;3966;51.052;13.820;2022-11-18T15:31:09;0.60;99.90
7842;DHT22;3966;51.052;13.820;2022-11-18T15:33:35;0.70;99.90
7842;DHT22;3966;51.052;13.820;2022-11-18T15:36:00;0.60;99.90
7842;DHT22;3966;51.052;13.820;2022-11-18T15:38:26;0.70;99.90
7842;DHT22;3966;51.052;13.820;2022-11-18T15:40:51;0.80;99.90
7842;DHT22;3966;51.052;13.820;2022-11-18T15:43:17;0.70;99.90
7842;DHT22;3966;51.052;13.820;2022-11-18T15:45:43;0.70;99.90
7842;DHT22;3966;51.052;13.820;2022-11-18T15:48:08;0.70;99.90
7842;DHT22;3966;51.052;13.820;2022-11-18T15:50:34;0.70;99.90
7842;DHT22;3966;51.052;13.820;2022-11-18T15:52:59;0.70;99.90
7842;DHT22;3966;51.052;13.820;2022-11-18T15:55:25;0.80;99.90
7842;DHT22;3966;51.052;13.820;2022-11-18T15:57:50;0.80;99.90
7842;DHT22;3966;51.052;13.820;2022-11-18T16:00:16;0.60;99.90
7842;DHT22;3966;51.052;13.820;2022-11-18T16:02:42;0.70;99.90
7842;DHT22;3966;51.052;13.820;2022-11-18T16:05:08;0.60;99.90
7842;DHT22;3966;51.052;13.820;2022-11-18T16:07:33;0.60;99.90
7842;DHT22;3966;51.052;13.820;2022-11-18T16:09:59;0.60;99.90
7842;DHT22;3966;51.052;13.820;2022-11-18T16:12:43;0.60;99.90
7842;DHT22;3966;51.052;13.820;2022-11-18T16:15:12;0.50;99.90
7842;DHT22;3966;51.052;13.820;2022-11-18T16:17:56;0.60;99.90
7842;DHT22;3966;51.052;13.820;2022-11-18T16:20:23;0.70;99.90
7842;DHT22;3966;51.052;13.820;2022-11-18T16:22:49;0.80;99.90
7842;DHT22;3966;51.052;13.820;2022-11-18T16:25:16;0.80;99.90
7842;DHT22;3966;51.052;13.820;2022-11-18T16:27:42;0.60;99.90
7842;DHT22;3966;51.052;13.820;2022-11-18T16:30:08;0.50;99.90
7842;DHT22;3966;51.052;13.820;2022-11-18T16:32:53;0.50;99.90
7842;DHT22;3966;51.052;13.820;2022-11-18T16:35:19;0.50;99.90
7842;DHT22;3966;51.052;13.820;2022-11-18T16:37:44;0.50;99.90
7842;DHT22;3966;51.052;13.820;2022-11-18T16:40:10;0.50;99.90
7842;DHT22;3966;51.052;13.820;2022-11-18T16:42:36;0.50;99.90
7842;DHT22;3966;51.052;13.820;2022-11-18T16:45:01;0.50;99.90
7842;DHT22;3966;51.052;13.820;2022-11-18T16:47:27;0.40;99.90
7842;DHT22;3966;51.052;13.820;2022-11-18T16:49:52;0.40;99.90
7842;DHT22;3966;51.052;13.820;2022-11-18T16:52:18;0.30;99.90
7842;DHT22;3966;51.052;13.820;2022-11-18T16:54:43;0.40;99.90
7842;DHT22;3966;51.052;13.820;2022-11-18T16:57:09;0.50;99.90
7842;DHT22;3966;51.052;13.820;2022-11-18T16:59:35;0.50;99.90
7842;DHT22;3966;51.052;13.820;2022-11-18T17:02:00;0.30;99.90
7842;DHT22;3966;51.052;13.820;2022-11-18T17:04:27;0.40;99.90
7842;DHT22;3966;51.052;13.820;2022-11-18T17:06:54;0.50;99.90
7842;DHT22;3966;51.052;13.820;2022-11-18T17:09:21;0.60;99.90
7842;DHT22;3966;51.052;13.820;2022-11-18T17:11:47;0.60;99.90
7842;DHT22;3966;51.052;13.820;2022-11-18T17:14:13;0.70;99.90
7842;DHT22;3966;51.052;13.820;2022-11-18T17:16:39;0.60;99.90
7842;DHT22;3966;51.052;13.820;2022-11-18T17:19:04;0.60;99.90
7842;DHT22;3966;51.052;13.820;2022-11-18T17:21:30;0.60;99.90
7842;DHT22;3966;51.052;13.820;2022-11-18T17:23:56;0.60;99.90
7842;DHT22;3966;51.052;13.820;2022-11-18T17:26:26;0.60;99.90
7842;DHT22;3966;51.052;13.820;2022-11-18T17:28:54;0.60;99.90
7842;DHT22;3966;51.052;13.820;2022-11-18T17:31:21;0.50;99.90
7842;DHT22;3966;51.052;13.820;2022-11-18T17:33:48;0.50;99.90
7842;DHT22;3966;51.052;13.820;2022-11-18T17:36:15;0.40;99.90
7842;DHT22;3966;51.052;13.820;2022-11-18T17:38:43;0.40;99.90
7842;DHT22;3966;51.052;13.820;2022-11-18T17:41:11;0.40;99.90
7842;DHT22;3966;51.052;13.820;2022-11-18T17:44:00;0.40;99.90
7842;DHT22;3966;51.052;13.820;2022-11-18T17:46:26;0.40;99.90
7842;DHT22;3966;51.052;13.820;2022-11-18T17:48:58;0.30;99.90
7842;DHT22;3966;51.052;13.820;2022-11-18T17:51:26;0.10;99.90
7842;DHT22;3966;51.052;13.820;2022-11-18T17:53:52;0.30;99.90
7842;DHT22;3966;51.052;13.820;2022-11-18T17:56:18;0.30;99.90
7842;DHT22;3966;51.052;13.820;2022-11-18T17:58:44;0.50;99.90
7842;DHT22;3966;51.052;13.820;2022-11-18T18:01:13;0.60;99.90
7842;DHT22;3966;51.052;13.820;2022-11-18T18:03:39;0.60;99.90
7842;DHT22;3966;51.052;13.820;2022-11-18T18:06:06;0.40;99.90